Terminal Aerodrome Forecast
Issued by NWS Mt. Holly, NJ

Home | Current Version | Previous Version | Text Only | Print | Product List | Glossary On
Versions: 1 2 3 4 5 6 7 8 9 10 11 12 13 14 15 16 17 18 19 20
113
FTUS41 KPHI 292006 AAA
TAFTTN
TAF AMD
KTTN 292006Z 2920/3018 08012G22KT P6SM -RA OVC010
      TEMPO 2921/3001 4SM -RADZ OVC008
     FM300300 08015G25KT 5SM -RA OVC011
      TEMPO 3009/3013 3SM RADZ OVC005
     FM301500 08017G27KT 5SM -RADZ BR OVC009=

USA.gov is the U.S. government's official web portal to all federal, state and local government web resources and services.